Time;durP1;ratioP1;P1;durP2;ratioP2;P2;SDS_P1;SDS_P2;PMS_P1;PMS_P2;Temp;Humidity;BMP_temperature;BMP_pressure;BME280_temperature;BME280_humidity;BME280_pressure;Samples;Min_cycle;Max_cycle;Signal;HPM_P1;HPM_P2
2023/12/11 08:09:39;;;;;;;4.03;0.60;;;;;;;-145.69;53.52;52218.63;4898179;29;20227;-80
2023/12/11 08:12:07;;;;;;;0.60;0.60;;;;;;;-145.69;53.92;52222.59;4895909;29;20267;-79
2023/12/11 08:14:34;;;;;;;1.10;0.60;;;;;;;-145.69;53.91;52226.53;4906064;29;20300;-81
2023/12/11 08:17:07;;;;;;;4.47;0.70;;;;;;;-145.69;54.15;52218.63;4912156;29;20286;-81
2023/12/11 08:19:33;;;;;;;0.85;0.70;;;;;;;-145.69;53.07;52202.78;4901250;29;20201;-80
2023/12/11 08:22:00;;;;;;;0.73;0.73;;;;;;;-145.69;53.80;52196.84;4897336;29;20236;-80
2023/12/11 08:24:27;;;;;;;3.30;0.70;;;;;;;-145.69;53.74;52210.72;4913251;29;20204;-80
2023/12/11 08:26:55;;;;;;;0.60;0.60;;;;;;;-145.69;53.97;52186.94;4904714;29;20208;-81
2023/12/11 08:29:22;;;;;;;0.70;0.70;;;;;;;-145.69;53.95;52244.38;4916634;29;20212;-81
2023/12/11 08:31:48;;;;;;;1.08;0.60;;;;;;;-145.69;53.80;52194.88;4916538;29;20236;-82
2023/12/11 08:34:15;;;;;;;0.85;0.77;;;;;;;-145.69;53.86;52204.75;4914832;29;20215;-83
2023/12/11 08:36:42;;;;;;;0.70;0.50;;;;;;;-145.69;53.72;52220.59;4908457;29;20232;-83
2023/12/11 08:39:09;;;;;;;1.80;0.77;;;;;;;-145.69;52.77;52226.53;4897453;29;20560;-82
2023/12/11 08:41:36;;;;;;;0.75;0.60;;;;;;;-145.69;52.88;52222.59;4911090;29;20283;-81
2023/12/11 08:44:04;;;;;;;1.25;0.60;;;;;;;-145.69;51.86;52202.78;4910006;29;20243;-81
2023/12/11 08:46:31;;;;;;;1.05;0.60;;;;;;;-145.69;51.42;52226.53;4916432;29;20216;-81
2023/12/11 08:48:58;;;;;;;1.27;0.60;;;;;;;-145.69;50.59;52230.50;4915669;29;20267;-80
2023/12/11 08:51:25;;;;;;;1.35;0.50;;;;;;;-145.69;50.70;52220.59;4915579;29;20698;-79
2023/12/11 08:53:51;;;;;;;0.68;0.45;;;;;;;-145.69;50.54;52192.88;4908324;29;20946;-80
2023/12/11 08:56:19;;;;;;;0.60;0.60;;;;;;;-145.69;49.40;52200.81;4913040;29;20600;-79
2023/12/11 08:58:47;;;;;;;1.17;0.65;;;;;;;-145.69;49.79;52206.75;4915247;29;20651;-80
2023/12/11 09:01:15;;;;;;;0.68;0.50;;;;;;;-145.69;49.65;52206.75;4906203;29;20241;-80
2023/12/11 09:03:42;;;;;;;1.55;0.60;;;;;;;-145.69;49.55;52228.53;4898974;29;20215;-80
2023/12/11 09:06:09;;;;;;;0.77;0.77;;;;;;;-145.69;50.24;52192.88;4904724;29;20230;-80
2023/12/11 09:08:35;;;;;;;0.95;0.47;;;;;;;-145.69;50.37;52200.81;4926683;29;20237;-81
2023/12/11 09:11:02;;;;;;;0.90;0.50;;;;;;;-145.69;50.49;52216.66;4935101;29;20210;-82
2023/12/11 09:13:29;;;;;;;0.50;0.50;;;;;;;-145.69;50.79;52182.97;4934301;29;20207;-82
2023/12/11 09:15:55;;;;;;;0.50;0.50;;;;;;;-145.69;51.42;52200.81;4916488;29;20559;-82
2023/12/11 09:18:23;;;;;;;1.50;0.55;;;;;;;-145.69;51.73;52198.81;4916709;29;20220;-82
2023/12/11 09:20:49;;;;;;;1.20;0.70;;;;;;;-145.69;51.73;52194.88;4934215;29;20203;-81
2023/12/11 09:23:16;;;;;;;2.65;0.60;;;;;;;-145.69;52.49;52177.03;4935133;29;20211;-81
2023/12/11 09:25:42;;;;;;;0.47;0.47;;;;;;;-145.69;53.07;52177.03;4928216;29;20204;-82
2023/12/11 09:28:09;;;;;;;2.70;0.80;;;;;;;-145.69;52.98;52196.84;4926710;29;20199;-81
2023/12/11 09:30:35;;;;;;;0.50;0.50;;;;;;;-145.69;53.30;52194.88;4938307;29;20207;-80
2023/12/11 09:33:02;;;;;;;1.85;0.93;;;;;;;-145.69;53.18;52188.91;4938100;29;20231;-79
2023/12/11 09:35:30;;;;;;;1.35;0.70;;;;;;;-145.69;53.50;52238.44;4931106;29;20218;-80
2023/12/11 09:37:56;;;;;;;2.13;0.73;;;;;;;-145.69;53.73;52206.75;4938339;29;20214;-80
2023/12/11 09:40:23;;;;;;;2.17;0.82;;;;;;;-145.69;52.85;52204.75;4923980;29;20196;-81
2023/12/11 09:42:51;;;;;;;1.05;0.70;;;;;;;-145.69;51.78;52167.13;4919116;29;20212;-81
2023/12/11 09:45:21;;;;;;;1.63;0.70;;;;;;;-145.69;51.75;52165.16;4919259;29;20691;-81
2023/12/11 09:47:50;;;;;;;0.60;0.50;;;;;;;-145.69;51.32;52212.69;4918913;29;20197;-80
2023/12/11 09:50:16;;;;;;;1.17;0.70;;;;;;;-145.69;51.01;52222.59;4931956;29;20199;-79
2023/12/11 09:52:44;;;;;;;2.15;0.70;;;;;;;-145.69;50.16;52204.75;4924432;29;20231;-79
2023/12/11 09:55:12;;;;;;;1.05;0.57;;;;;;;-145.69;50.49;52186.94;4932636;29;20207;-79
2023/12/11 09:57:40;;;;;;;0.88;0.70;;;;;;;-145.69;50.69;52230.50;4937742;29;20203;-79
2023/12/11 10:00:09;;;;;;;1.55;0.93;;;;;;;-145.69;50.59;52171.09;4937427;29;20211;-80
2023/12/11 10:02:38;;;;;;;1.42;0.73;;;;;;;-145.69;51.35;52212.69;4932442;29;20204;-78
2023/12/11 10:05:07;;;;;;;0.77;0.60;;;;;;;-145.69;51.78;52236.44;4918761;29;20667;-79
2023/12/11 10:07:34;;;;;;;0.80;0.68;;;;;;;-145.69;52.15;52218.63;4918621;29;20243;-82
2023/12/11 10:10:21;;;;;;;1.20;0.50;;;;;;;-145.69;52.23;52155.25;4928682;29;20203;-80
2023/12/11 10:12:48;;;;;;;0.85;0.73;;;;;;;-145.69;51.92;52192.88;4936916;29;20227;-78
2023/12/11 10:15:20;;;;;;;1.80;0.77;;;;;;;-145.69;52.68;52194.88;4936759;29;20456;-81
2023/12/11 10:17:46;;;;;;;0.55;0.55;;;;;;;-145.69;52.16;52198.81;4937736;29;20204;-81
2023/12/11 10:20:17;;;;;;;0.65;0.60;;;;;;;-145.69;51.83;52244.38;4926869;29;20259;-81
2023/12/11 10:22:44;;;;;;;0.68;0.60;;;;;;;-145.69;51.88;52218.63;4937217;29;20594;-79
2023/12/11 10:25:10;;;;;;;1.17;0.57;;;;;;;-145.69;51.78;52202.78;4934080;29;20574;-79
2023/12/11 10:27:39;;;;;;;0.63;0.55;;;;;;;-145.69;50.97;52186.94;4937526;29;20212;-80
2023/12/11 10:30:12;;;;;;;1.48;0.70;;;;;;;-145.69;51.50;52196.84;4936389;29;20722;-80
2023/12/11 10:32:38;;;;;;;0.68;0.57;;;;;;;-145.69;51.48;52208.72;4937397;29;20238;-78
2023/12/11 10:35:06;;;;;;;1.95;0.70;;;;;;;-145.69;51.38;52260.22;4927974;29;20203;-80
2023/12/11 10:37:35;;;;;;;0.68;0.68;;;;;;;-145.69;51.01;52226.53;4919912;29;20208;-80
2023/12/11 10:40:03;;;;;;;0.50;0.50;;;;;;;-145.69;50.86;52202.78;4928488;29;20242;-79
2023/12/11 10:42:30;;;;;;;4.40;0.95;;;;;;;-145.69;50.57;52167.13;4918512;29;20604;-79
2023/12/11 10:44:58;;;;;;;0.73;0.70;;;;;;;-145.69;50.44;52212.69;4925038;29;20199;-79
2023/12/11 10:47:24;;;;;;;1.55;0.77;;;;;;;-145.69;50.24;52194.88;4936259;29;20204;-80
2023/12/11 10:49:51;;;;;;;0.70;0.70;;;;;;;-145.69;50.24;52204.75;4936938;29;20192;-81
2023/12/11 10:52:18;;;;;;;11.43;1.23;;;;;;;-145.69;50.43;52165.16;4934639;29;20235;-79
2023/12/11 10:54:46;;;;;;;0.95;0.80;;;;;;;-145.69;49.97;52167.13;4936497;29;20203;-79
2023/12/11 10:57:16;;;;;;;2.95;0.77;;;;;;;-145.69;49.63;52194.88;4936056;29;20199;-79
2023/12/11 10:59:44;;;;;;;1.42;0.95;;;;;;;-145.69;49.28;52206.75;4935573;29;20207;-80
2023/12/11 11:02:16;;;;;;;1.38;1.00;;;;;;;-145.69;49.35;52196.84;4936013;29;20199;-80
2023/12/11 11:04:44;;;;;;;1.85;0.90;;;;;;;-145.69;49.60;52208.72;4936476;29;20554;-79
2023/12/11 11:07:16;;;;;;;3.30;1.15;;;;;;;-145.69;49.36;52210.72;4936483;29;20694;-81
2023/12/11 11:09:51;;;;;;;0.90;0.90;;;;;;;-145.69;49.68;52202.78;4936273;29;20796;-80
2023/12/11 11:12:28;;;;;;;1.13;0.88;;;;;;;-145.69;49.22;52230.50;4936257;29;20230;-80
2023/12/11 11:14:54;;;;;;;1.52;1.00;;;;;;;-145.69;49.00;52171.09;4936337;29;20199;-80
2023/12/11 11:17:22;;;;;;;0.98;0.70;;;;;;;-145.69;49.14;52202.78;4925309;29;20212;-79
2023/12/11 11:20:15;;;;;;;1.85;0.90;;;;;;;-145.69;48.96;52226.53;4921420;29;20199;-81
2023/12/11 11:22:41;;;;;;;0.82;0.60;;;;;;;-145.69;49.28;52228.53;4936563;29;20570;-81
2023/12/11 11:25:33;;;;;;;0.77;0.73;;;;;;;-145.69;48.81;52214.66;4929652;29;20208;-82
2023/12/11 11:27:59;;;;;;;1.25;0.70;;;;;;;-145.69;48.12;52194.88;4917287;29;20216;-80
2023/12/11 11:30:50;;;;;;;0.73;0.70;;;;;;;-145.69;47.35;52206.75;4929911;29;20230;-80
2023/12/11 11:33:22;;;;;;;1.65;0.70;;;;;;;-145.69;47.51;52163.19;4933475;29;20295;-81
2023/12/11 11:35:52;;;;;;;0.95;0.70;;;;;;;-145.69;47.60;52194.88;4928194;29;20230;-81
2023/12/11 11:38:20;;;;;;;1.00;0.85;;;;;;;-145.69;47.81;52163.19;4936084;29;20207;-81
2023/12/11 11:40:48;;;;;;;0.80;0.75;;;;;;;-145.69;47.88;52179.03;4935728;29;20203;-80
2023/12/11 11:43:15;;;;;;;1.60;0.70;;;;;;;-145.69;48.16;52165.16;4935939;29;20697;-79
2023/12/11 11:45:42;;;;;;;0.95;0.73;;;;;;;-145.69;47.46;52147.34;4931406;29;20196;-80
2023/12/11 11:48:09;;;;;;;0.52;0.50;;;;;;;-145.69;48.26;52192.88;4935115;29;20222;-79
2023/12/11 11:50:50;;;;;;;1.30;0.80;;;;;;;-145.69;47.83;52173.09;4934522;29;20215;-79
2023/12/11 11:53:19;;;;;;;2.05;0.63;;;;;;;-145.69;47.81;52169.13;4935710;29;20262;-81
2023/12/11 11:55:46;;;;;;;0.65;0.50;;;;;;;-145.69;48.48;52182.97;4935845;29;20562;-82
2023/12/11 11:58:14;;;;;;;1.70;0.45;;;;;;;-145.69;47.67;52186.94;4935880;29;20216;-82
2023/12/11 12:00:42;;;;;;;0.70;0.52;;;;;;;-145.69;47.48;52184.97;4935183;29;20203;-82
2023/12/11 12:03:09;;;;;;;0.60;0.60;;;;;;;-145.69;47.31;52161.19;4934978;29;20207;-82
2023/12/11 12:05:37;;;;;;;0.60;0.50;;;;;;;-145.69;48.64;52179.03;4934997;29;20449;-82
2023/12/11 12:08:08;;;;;;;0.60;0.60;;;;;;;-145.69;48.16;52186.94;4927425;29;20240;-81
2023/12/11 12:10:34;;;;;;;0.57;0.55;;;;;;;-145.69;48.77;52163.19;4927478;29;20753;-81
2023/12/11 12:13:03;;;;;;;1.15;0.50;;;;;;;-145.69;48.54;52119.63;4934786;29;20231;-82
2023/12/11 12:15:30;;;;;;;2.13;0.60;;;;;;;-145.69;47.94;52167.13;4932284;29;20199;-82
2023/12/11 12:18:07;;;;;;;0.80;0.75;;;;;;;-145.69;47.93;52171.09;4935374;29;20207;-81
2023/12/11 12:20:33;;;;;;;5.07;0.65;;;;;;;-145.69;48.44;52198.81;4928617;29;20227;-81
2023/12/11 12:23:02;;;;;;;1.73;0.70;;;;;;;-145.69;48.57;52159.22;4916475;29;20215;-82
2023/12/11 12:25:29;;;;;;;1.42;0.70;;;;;;;-145.69;48.60;52125.56;4922491;29;20654;-81
2023/12/11 12:27:58;;;;;;;8.32;3.25;;;;;;;-145.69;49.23;52181.00;4935271;29;20692;-81
2023/12/11 12:30:27;;;;;;;2.30;0.90;;;;;;;-145.69;49.30;52182.97;4934663;29;20218;-81
2023/12/11 12:32:55;;;;;;;1.20;0.65;;;;;;;-145.69;48.82;52222.59;4935290;29;20261;-81
2023/12/11 12:35:23;;;;;;;1.17;0.80;;;;;;;-145.69;48.82;52198.81;4934818;29;20210;-81
2023/12/11 12:37:50;;;;;;;4.03;0.63;;;;;;;-145.69;49.33;52179.03;4935473;29;20227;-81
2023/12/11 12:40:18;;;;;;;1.58;0.60;;;;;;;-145.69;49.20;52202.78;4935233;29;20666;-82
2023/12/11 12:42:45;;;;;;;1.40;0.68;;;;;;;-145.69;49.61;52216.66;4921361;29;20223;-81
2023/12/11 12:45:12;;;;;;;2.53;1.48;;;;;;;-145.69;49.47;52151.28;4916626;29;20211;-81
2023/12/11 12:47:45;;;;;;;1.80;0.90;;;;;;;-145.69;48.62;52167.13;4916307;29;20216;-81
2023/12/11 12:50:19;;;;;;;1.00;0.80;;;;;;;-145.69;48.54;52151.28;4921351;29;20725;-82
2023/12/11 12:52:45;;;;;;;1.95;0.60;;;;;;;-145.69;48.77;52186.94;4935399;29;20262;-81
2023/12/11 12:55:12;;;;;;;1.88;0.90;;;;;;;-145.69;48.33;52157.25;4934273;29;20211;-81
2023/12/11 12:57:41;;;;;;;1.83;1.00;;;;;;;-145.69;48.13;52204.75;4934868;29;20208;-82
2023/12/11 13:00:10;;;;;;;0.93;0.65;;;;;;;-145.69;48.13;52155.25;4919682;29;20642;-83
2023/12/11 13:02:37;;;;;;;1.52;0.90;;;;;;;-145.69;48.35;52194.88;4934851;29;20214;-81
2023/12/11 13:05:04;;;;;;;3.75;0.63;;;;;;;-145.69;48.24;52202.78;4937954;29;20229;-83
2023/12/11 13:07:32;;;;;;;1.60;0.73;;;;;;;-145.69;48.81;52181.00;4938622;29;20294;-83
2023/12/11 13:10:10;;;;;;;1.30;0.60;;;;;;;-145.69;49.10;52190.91;4938791;29;20235;-82
2023/12/11 13:12:36;;;;;;;1.45;0.75;;;;;;;-145.69;49.03;52208.72;4937906;29;20294;-82
2023/12/11 13:15:06;;;;;;;3.28;1.13;;;;;;;-145.69;48.96;52192.88;4938178;29;20203;-82
2023/12/11 13:17:33;;;;;;;2.05;0.80;;;;;;;-145.69;48.37;52181.00;4919646;29;20659;-81
2023/12/11 13:19:59;;;;;;;3.88;0.98;;;;;;;-145.69;48.49;52218.63;4919646;29;20260;-81
2023/12/11 13:22:26;;;;;;;1.17;0.70;;;;;;;-145.69;49.98;52206.75;4936151;29;20207;-81
2023/12/11 13:24:52;;;;;;;2.17;0.75;;;;;;;-145.69;49.58;52250.31;4938298;29;20290;-81
2023/12/11 13:27:21;;;;;;;2.70;0.90;;;;;;;-145.69;49.61;52214.66;4921119;29;20559;-81
2023/12/11 13:29:48;;;;;;;3.15;0.90;;;;;;;-145.69;49.21;52171.09;4919390;29;20260;-82
2023/12/11 13:32:15;;;;;;;5.18;1.20;;;;;;;-145.69;48.81;52208.72;4922209;29;20219;-82
2023/12/11 13:34:42;;;;;;;4.30;1.02;;;;;;;-145.69;48.85;52212.69;4919282;29;20287;-81
2023/12/11 13:37:08;;;;;;;3.15;0.80;;;;;;;-145.69;48.85;52177.03;4934920;29;20227;-81
2023/12/11 13:39:35;;;;;;;5.60;3.00;;;;;;;-145.69;48.39;52179.03;4938405;29;20215;-81
2023/12/11 13:42:02;;;;;;;3.47;1.20;;;;;;;-145.69;48.13;52208.72;4937678;29;20351;-79
2023/12/11 13:44:28;;;;;;;5.65;0.88;;;;;;;-145.69;47.83;52179.03;4938227;29;20211;-81
2023/12/11 13:46:55;;;;;;;6.40;2.22;;;;;;;-145.69;47.78;52194.88;4924540;29;20207;-80
2023/12/11 13:49:22;;;;;;;7.85;1.00;;;;;;;-145.69;47.61;52184.97;4919310;29;20207;-80
2023/12/11 13:51:49;;;;;;;1.77;1.00;;;;;;;-145.69;48.04;52196.84;4931759;29;20199;-80
2023/12/11 13:54:16;;;;;;;2.67;1.10;;;;;;;-145.69;48.70;52204.75;4938069;29;20254;-79
2023/12/11 13:56:42;;;;;;;4.93;1.10;;;;;;;-145.69;48.88;52190.91;4927053;29;20303;-79
2023/12/11 13:59:09;;;;;;;2.55;1.30;;;;;;;-145.69;48.46;52167.13;4922909;29;20229;-80
2023/12/11 14:01:35;;;;;;;2.15;1.17;;;;;;;-145.69;48.26;52210.72;4927823;29;20235;-80
2023/12/11 14:04:02;;;;;;;4.45;1.05;;;;;;;-145.69;47.59;52208.72;4936613;29;20204;-80
2023/12/11 14:06:30;;;;;;;1.52;0.98;;;;;;;-145.69;47.55;52182.97;4926130;29;20619;-80
2023/12/11 14:08:56;;;;;;;3.97;1.95;;;;;;;-145.69;47.93;52198.81;4918448;29;20232;-79
2023/12/11 14:11:23;;;;;;;2.05;0.90;;;;;;;-145.69;47.66;52186.94;4918609;29;20213;-79
2023/12/11 14:13:49;;;;;;;2.88;1.35;;;;;;;-145.69;47.68;52204.75;4918289;29;20236;-80
2023/12/11 14:16:16;;;;;;;3.15;0.90;;;;;;;-145.69;47.26;52190.91;4918311;29;20208;-79
2023/12/11 14:18:42;;;;;;;3.95;1.60;;;;;;;-145.69;47.04;52159.22;4930888;29;20208;-80
2023/12/11 14:21:10;;;;;;;5.25;1.27;;;;;;;-145.69;47.08;52194.88;4937207;29;20632;-80
2023/12/11 14:23:39;;;;;;;2.88;1.17;;;;;;;-145.69;47.43;52196.84;4931678;29;20311;-79
2023/12/11 14:26:06;;;;;;;3.03;1.30;;;;;;;-145.69;47.23;52169.13;4922536;29;20202;-80
2023/12/11 14:28:32;;;;;;;5.13;1.10;;;;;;;-145.69;47.63;52194.88;4937047;29;20208;-80
2023/12/11 14:30:58;;;;;;;2.45;1.10;;;;;;;-145.69;48.33;52175.06;4936930;29;20222;-78
2023/12/11 14:33:25;;;;;;;5.35;1.23;;;;;;;-145.69;48.03;52194.88;4937218;29;20724;-82
2023/12/11 14:35:51;;;;;;;4.85;1.27;;;;;;;-145.69;48.60;52218.63;4934681;29;20199;-81
2023/12/11 14:38:18;;;;;;;2.97;1.27;;;;;;;-145.69;48.57;52208.72;4926777;29;20203;-80
2023/12/11 14:40:46;;;;;;;5.43;1.33;;;;;;;-145.69;49.19;52210.72;4936291;29;20204;-81
2023/12/11 14:43:12;;;;;;;3.10;1.30;;;;;;;-145.69;49.15;52210.72;4931421;29;20574;-80
2023/12/11 14:45:39;;;;;;;7.18;1.27;;;;;;;-145.69;49.55;52186.94;4918071;29;20204;-80
2023/12/11 14:48:05;;;;;;;2.78;1.38;;;;;;;-145.69;49.30;52202.78;4924771;29;20214;-80
2023/12/11 14:50:32;;;;;;;2.47;1.40;;;;;;;-145.69;49.13;52200.81;4937221;29;20204;-80
2023/12/11 14:52:58;;;;;;;4.18;1.10;;;;;;;-145.69;49.64;52204.75;4936374;29;20241;-80
2023/12/11 14:55:25;;;;;;;3.60;1.13;;;;;;;-145.69;49.99;52186.94;4936807;29;20215;-80
2023/12/11 14:57:53;;;;;;;4.28;1.20;;;;;;;-145.69;49.89;52208.72;4924860;29;20297;-80
2023/12/11 15:00:20;;;;;;;2.15;1.23;;;;;;;-145.69;49.93;52234.47;4936844;29;20207;-80
2023/12/11 15:02:46;;;;;;;13.85;4.45;;;;;;;-145.69;50.03;52206.75;4921546;29;20211;-80
2023/12/11 15:05:12;;;;;;;6.90;2.70;;;;;;;-145.69;50.63;52206.75;4936759;29;20212;-80
2023/12/11 15:07:39;;;;;;;4.40;1.50;;;;;;;-145.69;50.96;52234.47;4935638;29;20230;-80
2023/12/11 15:10:07;;;;;;;7.95;1.90;;;;;;;-145.69;51.52;52206.75;4936729;29;20219;-81
2023/12/11 15:12:35;;;;;;;5.60;2.35;;;;;;;-145.69;51.57;52218.63;4936454;29;20225;-80
2023/12/11 15:15:04;;;;;;;6.60;1.23;;;;;;;-145.69;50.89;52194.88;4927987;29;20232;-81
2023/12/11 15:17:31;;;;;;;3.87;1.20;;;;;;;-145.69;51.11;52234.47;4930065;29;20287;-81
2023/12/11 15:19:57;;;;;;;9.25;1.25;;;;;;;-145.69;51.68;52234.47;4936545;29;20215;-80
2023/12/11 15:22:24;;;;;;;6.53;1.43;;;;;;;-145.69;51.27;52218.63;4936299;29;20222;-80
2023/12/11 15:24:50;;;;;;;8.37;1.90;;;;;;;-145.69;51.74;52210.72;4936085;29;20215;-79
2023/12/11 15:27:17;;;;;;;4.00;1.80;;;;;;;-145.69;52.44;52232.50;4929173;29;20207;-81
2023/12/11 15:29:43;;;;;;;6.90;1.50;;;;;;;-145.69;52.63;52248.34;4932813;29;20714;-80
2023/12/11 15:32:11;;;;;;;4.00;1.27;;;;;;;-145.69;51.69;52260.22;4935621;29;20207;-80
2023/12/11 15:34:40;;;;;;;3.10;1.60;;;;;;;-145.69;51.80;52222.59;4917200;29;20231;-78
2023/12/11 15:37:06;;;;;;;2.67;1.33;;;;;;;-145.69;52.65;52230.50;4925449;29;20283;-79
2023/12/11 15:39:33;;;;;;;2.10;1.30;;;;;;;-145.69;52.79;52228.53;4936044;29;20210;-79
2023/12/11 15:41:59;;;;;;;5.10;1.67;;;;;;;-145.69;53.56;52262.19;4925519;29;20192;-80
2023/12/11 15:44:26;;;;;;;8.57;2.07;;;;;;;-145.69;53.74;52282.00;4930232;29;20207;-79
2023/12/11 15:46:52;;;;;;;7.10;1.70;;;;;;;-145.69;53.65;52242.38;4934766;29;20295;-79
2023/12/11 15:49:20;;;;;;;6.10;1.77;;;;;;;-145.69;54.48;52262.19;4917458;29;20208;-81
2023/12/11 15:51:49;;;;;;;6.37;2.00;;;;;;;-145.69;53.81;52250.31;4922033;29;20202;-81
2023/12/11 15:54:16;;;;;;;4.77;2.20;;;;;;;-145.69;54.95;52268.13;4935694;29;20231;-80
2023/12/11 15:56:42;;;;;;;8.67;3.53;;;;;;;-145.69;54.71;52234.47;4935870;29;20558;-79
2023/12/11 15:59:09;;;;;;;6.13;3.00;;;;;;;-145.69;54.79;52270.13;4933830;29;20563;-80
2023/12/11 16:01:35;;;;;;;11.90;3.27;;;;;;;-145.69;55.56;52256.25;4922829;29;20207;-80
2023/12/11 16:04:02;;;;;;;6.97;3.00;;;;;;;-145.69;55.16;52270.13;4935260;29;20200;-79
2023/12/11 16:06:30;;;;;;;6.20;2.40;;;;;;;-145.69;55.39;52258.22;4924147;29;20210;-80
2023/12/11 16:08:57;;;;;;;11.17;3.23;;;;;;;-145.69;55.76;52250.31;4916285;29;20711;-80
2023/12/11 16:11:24;;;;;;;4.60;2.27;;;;;;;-145.69;55.61;52262.19;4932340;29;20207;-79
2023/12/11 16:13:50;;;;;;;5.07;2.57;;;;;;;-145.69;55.41;52260.22;4935728;29;20235;-80
2023/12/11 16:16:17;;;;;;;5.67;2.40;;;;;;;-145.69;55.57;52266.16;4935512;29;20207;-80
2023/12/11 16:18:44;;;;;;;6.77;2.83;;;;;;;-145.69;55.42;52238.44;4935513;29;20211;-79
2023/12/11 16:21:11;;;;;;;9.63;4.73;;;;;;;-145.69;54.85;52280.00;4932601;29;20204;-80
2023/12/11 16:23:39;;;;;;;19.27;6.90;;;;;;;-145.69;54.49;52202.78;4916848;29;20215;-79
2023/12/11 16:26:12;;;;;;;11.23;4.87;;;;;;;-145.69;54.81;52246.34;4928768;29;20814;-79
2023/12/11 16:28:39;;;;;;;11.23;4.73;;;;;;;-145.69;54.29;52242.38;4935667;29;20212;-79
2023/12/11 16:31:05;;;;;;;9.20;3.97;;;;;;;-145.69;54.56;52258.22;4934886;29;20210;-80
2023/12/11 16:33:32;;;;;;;9.57;3.83;;;;;;;-145.69;54.91;52262.19;4934311;29;20583;-81
2023/12/11 16:35:58;;;;;;;8.90;3.20;;;;;;;-145.69;54.97;52252.28;4933166;29;20215;-83
2023/12/11 16:38:25;;;;;;;10.50;3.50;;;;;;;-145.69;54.79;52282.00;4937572;29;20211;-81
2023/12/11 16:40:52;;;;;;;11.47;3.20;;;;;;;-145.69;55.08;52238.44;4934562;29;20207;-79
2023/12/11 16:43:19;;;;;;;8.57;3.03;;;;;;;-145.69;55.61;52274.06;4939232;29;20669;-81
2023/12/11 16:45:45;;;;;;;8.90;4.07;;;;;;;-145.69;55.82;52258.22;4939064;29;20211;-82
2023/12/11 16:48:12;;;;;;;14.60;5.27;;;;;;;-145.69;56.47;52289.91;4938738;29;20204;-82
2023/12/11 16:50:38;;;;;;;19.13;6.77;;;;;;;-145.69;56.14;52242.38;4938806;29;20208;-82
2023/12/11 16:53:06;;;;;;;37.67;14.30;;;;;;;-145.69;56.52;52252.28;4938897;29;20210;-81
2023/12/11 16:55:32;;;;;;;34.10;12.52;;;;;;;-145.69;56.88;52260.22;4938735;29;20473;-80
2023/12/11 16:58:00;;;;;;;38.90;13.30;;;;;;;-145.69;56.41;52270.13;4937649;29;20700;-81
2023/12/11 17:00:26;;;;;;;39.00;12.70;;;;;;;-145.69;56.95;52236.44;4938886;29;20203;-80
2023/12/11 17:02:53;;;;;;;19.37;6.93;;;;;;;-145.69;57.23;52270.13;4938871;29;20204;-81
2023/12/11 17:05:19;;;;;;;13.30;4.23;;;;;;;-145.69;57.70;52285.97;4938223;29;20207;-82
2023/12/11 17:07:46;;;;;;;7.23;3.23;;;;;;;-145.69;57.66;52262.19;4938186;29;20243;-81
2023/12/11 17:10:15;;;;;;;7.67;3.17;;;;;;;-145.69;58.06;52256.25;4938175;29;20215;-81
2023/12/11 17:12:41;;;;;;;16.83;10.47;;;;;;;-145.69;58.18;52287.94;4938711;29;20208;-82
2023/12/11 17:15:10;;;;;;;14.07;5.03;;;;;;;-145.69;58.22;52282.00;4923981;29;20606;-81
2023/12/11 17:17:36;;;;;;;10.07;3.97;;;;;;;-145.69;58.68;52285.97;4937821;29;20207;-82
2023/12/11 17:20:04;;;;;;;12.83;3.80;;;;;;;-145.69;57.88;52291.91;4938286;29;20207;-80
2023/12/11 17:22:30;;;;;;;5.93;2.10;;;;;;;-145.69;59.15;52244.38;4938755;29;20203;-81
2023/12/11 17:24:59;;;;;;;7.93;1.67;;;;;;;-145.69;60.23;52307.75;4937693;29;20736;-81
2023/12/11 17:27:25;;;;;;;7.83;1.80;;;;;;;-145.69;59.86;52250.31;4938335;29;20214;-82
2023/12/11 17:29:52;;;;;;;8.00;2.10;;;;;;;-145.69;59.44;52293.88;4938384;29;20782;-82
2023/12/11 17:32:19;;;;;;;8.38;2.45;;;;;;;-145.69;60.14;52305.75;4918704;29;20447;-79
2023/12/11 17:34:46;;;;;;;8.90;2.00;;;;;;;-145.69;59.79;52266.16;4923535;29;20235;-81
2023/12/11 17:37:12;;;;;;;7.33;2.00;;;;;;;-145.69;60.06;52280.00;4920535;29;20208;-81
2023/12/11 17:39:39;;;;;;;10.47;2.27;;;;;;;-145.69;59.77;52274.06;4919225;29;20204;-80
2023/12/11 17:42:05;;;;;;;9.30;1.90;;;;;;;-145.69;59.67;52270.13;4919293;29;20203;-80
2023/12/11 17:44:32;;;;;;;8.03;2.03;;;;;;;-145.69;60.09;52282.00;4921386;29;20215;-81
2023/12/11 17:46:58;;;;;;;5.40;1.97;;;;;;;-145.69;60.20;52280.00;4922442;29;20208;-81
2023/12/11 17:49:26;;;;;;;6.57;1.73;;;;;;;-145.69;60.39;52272.09;4935215;29;20215;-81
2023/12/11 17:51:53;;;;;;;6.87;2.47;;;;;;;-145.69;60.45;52317.66;4938022;29;20208;-81
2023/12/11 17:54:19;;;;;;;10.90;1.90;;;;;;;-145.69;60.36;52266.16;4937806;29;20231;-80
2023/12/11 17:56:46;;;;;;;14.27;3.70;;;;;;;-145.69;60.74;52272.09;4937909;29;20211;-81
2023/12/11 17:59:12;;;;;;;12.03;4.47;;;;;;;-145.69;60.22;52287.94;4937946;29;20214;-80
2023/12/11 18:01:39;;;;;;;10.27;3.10;;;;;;;-145.69;61.18;52309.72;4937521;29;20215;-82
2023/12/11 18:04:07;;;;;;;8.73;3.07;;;;;;;-145.69;60.57;52289.91;4936566;29;20574;-81
2023/12/11 18:06:35;;;;;;;10.20;3.33;;;;;;;-145.69;61.73;52295.84;4927694;29;20199;-81
2023/12/11 18:09:02;;;;;;;10.80;3.22;;;;;;;-145.69;61.21;52297.84;4917840;29;20464;-82
2023/12/11 18:11:29;;;;;;;10.63;2.40;;;;;;;-145.69;61.21;52309.72;4928728;29;20210;-81
2023/12/11 18:13:55;;;;;;;7.97;2.60;;;;;;;-145.69;61.03;52274.06;4929163;29;20211;-80
2023/12/11 18:16:22;;;;;;;12.33;3.27;;;;;;;-145.69;61.06;52297.84;4918505;29;20203;-80
2023/12/11 18:18:48;;;;;;;6.80;2.57;;;;;;;-145.69;60.75;52291.91;4927371;29;20207;-80
2023/12/11 18:21:14;;;;;;;5.83;1.80;;;;;;;-145.69;60.76;52315.66;4935459;29;20208;-78
2023/12/11 18:23:42;;;;;;;7.17;1.90;;;;;;;-145.69;60.79;52303.78;4918721;29;20200;-80
2023/12/11 18:26:11;;;;;;;12.03;2.80;;;;;;;-145.69;60.92;52301.81;4929606;29;20203;-80
2023/12/11 18:28:37;;;;;;;28.37;11.70;;;;;;;-145.69;60.38;52289.91;4936866;29;20286;-81
2023/12/11 18:31:04;;;;;;;15.00;3.37;;;;;;;-145.69;59.72;52276.06;4927405;29;20195;-81
2023/12/11 18:33:31;;;;;;;6.77;2.87;;;;;;;-145.69;59.37;52262.19;4936806;29;20562;-79
2023/12/11 18:35:58;;;;;;;14.17;5.47;;;;;;;-145.69;59.41;52270.13;4936591;29;20227;-80
2023/12/11 18:38:25;;;;;;;12.00;3.97;;;;;;;-145.69;58.86;52250.31;4934524;29;20208;-80
2023/12/11 18:40:52;;;;;;;9.77;4.00;;;;;;;-145.69;58.89;52262.19;4937063;29;20196;-80
2023/12/11 18:43:20;;;;;;;11.80;3.63;;;;;;;-145.69;59.22;52282.00;4936950;29;20203;-79
2023/12/11 18:45:47;;;;;;;8.50;3.17;;;;;;;-145.69;59.00;52262.19;4936777;29;20200;-80
2023/12/11 18:48:13;;;;;;;9.32;3.00;;;;;;;-145.69;59.83;52313.69;4935722;29;20453;-79
2023/12/11 18:50:40;;;;;;;14.73;7.63;;;;;;;-145.69;59.69;52280.00;4935155;29;20207;-80
2023/12/11 18:53:06;;;;;;;16.37;5.00;;;;;;;-145.69;59.41;52280.00;4935883;29;20207;-79
2023/12/11 18:55:32;;;;;;;11.97;5.10;;;;;;;-145.69;59.64;52321.59;4932663;29;20239;-81
2023/12/11 18:58:01;;;;;;;14.03;3.27;;;;;;;-145.69;59.71;52272.09;4936521;29;20200;-79
2023/12/11 19:00:28;;;;;;;8.27;2.60;;;;;;;-145.69;60.69;52305.75;4936402;29;20231;-81
2023/12/11 19:02:54;;;;;;;12.93;3.40;;;;;;;-145.69;60.78;52293.88;4936022;29;20207;-80
2023/12/11 19:05:21;;;;;;;9.17;2.47;;;;;;;-145.69;60.66;52287.94;4936786;29;20219;-80
2023/12/11 19:07:47;;;;;;;5.30;2.40;;;;;;;-145.69;59.92;52289.91;4936144;29;20258;-80
2023/12/11 19:10:14;;;;;;;10.77;2.80;;;;;;;-145.69;59.67;52258.22;4935521;29;20215;-79
2023/12/11 19:12:41;;;;;;;9.57;2.73;;;;;;;-145.69;59.47;52283.97;4931330;29;20276;-79
2023/12/11 19:15:09;;;;;;;7.53;2.50;;;;;;;-145.69;59.24;52230.50;4917449;29;20321;-80
2023/12/11 19:17:36;;;;;;;11.70;4.63;;;;;;;-145.69;58.34;52250.31;4932329;29;20208;-80
2023/12/11 19:20:02;;;;;;;6.60;3.20;;;;;;;-145.69;58.69;52282.00;4924881;29;20195;-81
2023/12/11 19:22:29;;;;;;;8.67;1.97;;;;;;;-145.69;58.46;52325.56;4922085;29;20216;-80
2023/12/11 19:24:55;;;;;;;5.23;2.37;;;;;;;-145.69;58.05;52262.19;4918018;29;20211;-79
2023/12/11 19:27:24;;;;;;;7.63;1.63;;;;;;;-145.69;57.46;52289.91;4936220;29;20207;-80